sensor_id;sensor_type;location;lat;lon;timestamp;pressure;altitude;pressure_sealevel;temperature;humidity
19108;BME280;9686;48.832;9.126;2023-01-19T00:02:22;97096.59;;;3.93;84.12
19108;BME280;9686;48.832;9.126;2023-01-19T00:04:48;97100.84;;;3.87;84.68
19108;BME280;9686;48.832;9.126;2023-01-19T00:07:13;97104.28;;;3.86;86.49
19108;BME280;9686;48.832;9.126;2023-01-19T00:09:39;97105.13;;;3.72;88.51
19108;BME280;9686;48.832;9.126;2023-01-19T00:12:05;97101.69;;;3.77;88.66
19108;BME280;9686;48.832;9.126;2023-01-19T00:14:30;97100.84;;;3.79;86.06
19108;BME280;9686;48.832;9.126;2023-01-19T00:16:56;97108.56;;;3.67;89.38
19108;BME280;9686;48.832;9.126;2023-01-19T00:19:21;97112.78;;;3.54;90.33
19108;BME280;9686;48.832;9.126;2023-01-19T00:21:47;97107.69;;;3.71;85.56
19108;BME280;9686;48.832;9.126;2023-01-19T00:24:12;97105.94;;;3.64;87.69
19108;BME280;9686;48.832;9.126;2023-01-19T00:26:38;97109.41;;;3.64;87.54
19108;BME280;9686;48.832;9.126;2023-01-19T00:29:05;97104.25;;;3.66;85.46
19108;BME280;9686;48.832;9.126;2023-01-19T00:31:32;97113.72;;;3.71;86.17
19108;BME280;9686;48.832;9.126;2023-01-19T00:34:01;97109.41;;;3.66;85.61
19108;BME280;9686;48.832;9.126;2023-01-19T00:36:26;97116.25;;;3.62;87.53
19108;BME280;9686;48.832;9.126;2023-01-19T00:38:52;97111.94;;;3.63;85.60
19108;BME280;9686;48.832;9.126;2023-01-19T00:41:17;97121.44;;;3.65;84.83
19108;BME280;9686;48.832;9.126;2023-01-19T00:44:03;97110.28;;;3.76;86.45
19108;BME280;9686;48.832;9.126;2023-01-19T00:46:29;97106.84;;;3.72;85.49
19108;BME280;9686;48.832;9.126;2023-01-19T00:48:54;97110.28;;;3.69;86.13
19108;BME280;9686;48.832;9.126;2023-01-19T00:51:19;97111.13;;;3.71;82.96
19108;BME280;9686;48.832;9.126;2023-01-19T00:53:44;97110.28;;;3.88;83.72
19108;BME280;9686;48.832;9.126;2023-01-19T00:56:10;97113.72;;;3.82;83.78
19108;BME280;9686;48.832;9.126;2023-01-19T00:58:35;97112.91;;;3.92;82.04
19108;BME280;9686;48.832;9.126;2023-01-19T01:01:00;97112.06;;;4.02;77.61
19108;BME280;9686;48.832;9.126;2023-01-19T01:03:27;97118.88;;;3.81;83.46
19108;BME280;9686;48.832;9.126;2023-01-19T01:05:52;97112.88;;;3.82;85.09
19108;BME280;9686;48.832;9.126;2023-01-19T01:08:18;97107.72;;;3.77;83.25
19108;BME280;9686;48.832;9.126;2023-01-19T01:10:43;97115.50;;;4.00;80.59
19108;BME280;9686;48.832;9.126;2023-01-19T01:13:08;97118.84;;;3.67;80.93
19108;BME280;9686;48.832;9.126;2023-01-19T01:15:33;97112.84;;;3.76;82.60
19108;BME280;9686;48.832;9.126;2023-01-19T01:17:59;97115.44;;;3.77;81.67
19108;BME280;9686;48.832;9.126;2023-01-19T01:20:26;97116.28;;;3.73;82.02
19108;BME280;9686;48.832;9.126;2023-01-19T01:22:52;97115.44;;;3.72;82.17
19108;BME280;9686;48.832;9.126;2023-01-19T01:25:19;97126.53;;;3.64;82.57
19108;BME280;9686;48.832;9.126;2023-01-19T01:27:46;97120.59;;;3.79;80.94
19108;BME280;9686;48.832;9.126;2023-01-19T01:30:13;97121.41;;;3.64;83.82
19108;BME280;9686;48.832;9.126;2023-01-19T01:32:39;97130.88;;;3.66;80.43
19108;BME280;9686;48.832;9.126;2023-01-19T01:35:05;97130.03;;;3.66;81.91
19108;BME280;9686;48.832;9.126;2023-01-19T01:37:30;97129.13;;;3.61;83.87
19108;BME280;9686;48.832;9.126;2023-01-19T01:39:55;97129.97;;;3.58;81.27
19108;BME280;9686;48.832;9.126;2023-01-19T01:42:26;97131.66;;;3.50;81.24
19108;BME280;9686;48.832;9.126;2023-01-19T01:45:00;97137.63;;;3.40;84.25
19108;BME280;9686;48.832;9.126;2023-01-19T01:47:46;97131.56;;;3.33;86.76
19108;BME280;9686;48.832;9.126;2023-01-19T01:50:19;97132.44;;;3.35;87.75
19108;BME280;9686;48.832;9.126;2023-01-19T01:52:50;97131.69;;;3.56;84.15
19108;BME280;9686;48.832;9.126;2023-01-19T01:55:18;97126.53;;;3.59;83.58
19108;BME280;9686;48.832;9.126;2023-01-19T01:57:48;97135.09;;;3.51;84.65
19108;BME280;9686;48.832;9.126;2023-01-19T02:00:14;97131.66;;;3.44;85.47
19108;BME280;9686;48.832;9.126;2023-01-19T02:02:40;97127.38;;;3.52;85.73
19108;BME280;9686;48.832;9.126;2023-01-19T02:05:32;97127.41;;;3.60;84.88
19108;BME280;9686;48.832;9.126;2023-01-19T02:08:12;97132.53;;;3.58;84.32
19108;BME280;9686;48.832;9.126;2023-01-19T02:10:58;97128.25;;;3.57;81.76
19108;BME280;9686;48.832;9.126;2023-01-19T02:13:43;97116.22;;;3.58;83.39
19108;BME280;9686;48.832;9.126;2023-01-19T02:16:10;97116.22;;;3.56;82.45
19108;BME280;9686;48.832;9.126;2023-01-19T02:18:37;97118.78;;;3.49;82.97
19108;BME280;9686;48.832;9.126;2023-01-19T02:21:21;97122.25;;;3.60;82.58
19108;BME280;9686;48.832;9.126;2023-01-19T02:23:52;97124.78;;;3.42;84.44
19108;BME280;9686;48.832;9.126;2023-01-19T02:26:22;97116.19;;;3.39;82.58
19108;BME280;9686;48.832;9.126;2023-01-19T02:29:08;97123.94;;;3.55;81.02
19108;BME280;9686;48.832;9.126;2023-01-19T02:31:36;97117.94;;;3.54;82.16
19108;BME280;9686;48.832;9.126;2023-01-19T02:34:04;97119.72;;;3.64;82.67
19108;BME280;9686;48.832;9.126;2023-01-19T02:39:19;97122.25;;;3.58;78.50
19108;BME280;9686;48.832;9.126;2023-01-19T02:41:52;97125.69;;;3.63;81.37
19108;BME280;9686;48.832;9.126;2023-01-19T02:44:21;97129.97;;;3.63;79.60
19108;BME280;9686;48.832;9.126;2023-01-19T02:46:47;97130.84;;;3.60;79.25
19108;BME280;9686;48.832;9.126;2023-01-19T02:49:12;97129.94;;;3.48;80.98
19108;BME280;9686;48.832;9.126;2023-01-19T02:51:38;97135.97;;;3.56;81.08
19108;BME280;9686;48.832;9.126;2023-01-19T02:54:05;97137.59;;;3.34;81.51
19108;BME280;9686;48.832;9.126;2023-01-19T02:57:18;97122.19;;;3.42;82.92
19108;BME280;9686;48.832;9.126;2023-01-19T03:00:14;97128.13;;;3.31;85.54
19108;BME280;9686;48.832;9.126;2023-01-19T03:05:28;97131.56;;;3.29;82.37
19108;BME280;9686;48.832;9.126;2023-01-19T03:10:46;97130.56;;;3.02;84.35
19108;BME280;9686;48.832;9.126;2023-01-19T03:15:54;97134.72;;;2.85;84.43
19108;BME280;9686;48.832;9.126;2023-01-19T03:18:24;97133.06;;;2.89;83.58
19108;BME280;9686;48.832;9.126;2023-01-19T03:20:53;97133.06;;;2.90;83.65
19108;BME280;9686;48.832;9.126;2023-01-19T03:23:20;97134.78;;;2.93;82.91
19108;BME280;9686;48.832;9.126;2023-01-19T03:25:49;97133.00;;;2.84;85.01
19108;BME280;9686;48.832;9.126;2023-01-19T03:28:18;97126.09;;;2.75;85.53
19108;BME280;9686;48.832;9.126;2023-01-19T03:30:48;97132.06;;;2.71;85.52
19108;BME280;9686;48.832;9.126;2023-01-19T03:33:22;97133.63;;;2.50;87.41
19108;BME280;9686;48.832;9.126;2023-01-19T03:35:53;97143.03;;;2.46;89.10
19108;BME280;9686;48.832;9.126;2023-01-19T03:38:24;97135.13;;;2.26;89.11
19108;BME280;9686;48.832;9.126;2023-01-19T03:40:55;97132.53;;;2.25;89.02
19108;BME280;9686;48.832;9.126;2023-01-19T03:43:23;97143.69;;;2.27;89.40
19108;BME280;9686;48.832;9.126;2023-01-19T03:45:50;97141.03;;;2.16;89.98
19108;BME280;9686;48.832;9.126;2023-01-19T03:48:16;97145.28;;;2.09;88.55
19108;BME280;9686;48.832;9.126;2023-01-19T03:50:42;97139.16;;;2.01;91.52
19108;BME280;9686;48.832;9.126;2023-01-19T03:53:09;97146.16;;;2.13;94.12
19108;BME280;9686;48.832;9.126;2023-01-19T03:55:37;97145.41;;;2.28;89.90
19108;BME280;9686;48.832;9.126;2023-01-19T03:58:03;97147.06;;;2.21;88.29
19108;BME280;9686;48.832;9.126;2023-01-19T04:00:29;97149.44;;;2.01;90.22
19108;BME280;9686;48.832;9.126;2023-01-19T04:02:55;97141.72;;;1.98;90.59
19108;BME280;9686;48.832;9.126;2023-01-19T04:05:20;97143.41;;;1.98;92.93
19108;BME280;9686;48.832;9.126;2023-01-19T04:07:50;97157.75;;;1.77;94.56
19108;BME280;9686;48.832;9.126;2023-01-19T04:10:16;97157.03;;;1.88;92.14
19108;BME280;9686;48.832;9.126;2023-01-19T04:12:42;97159.59;;;1.88;91.61
19108;BME280;9686;48.832;9.126;2023-01-19T04:15:08;97160.47;;;1.88;92.16
19108;BME280;9686;48.832;9.126;2023-01-19T04:17:34;97166.44;;;1.85;92.48
19108;BME280;9686;48.832;9.126;2023-01-19T04:19:59;97171.34;;;1.67;95.89
19108;BME280;9686;48.832;9.126;2023-01-19T04:22:24;97162.78;;;1.67;95.61
19108;BME280;9686;48.832;9.126;2023-01-19T04:24:50;97161.13;;;1.73;94.60
19108;BME280;9686;48.832;9.126;2023-01-19T04:27:16;97168.19;;;1.90;90.06
19108;BME280;9686;48.832;9.126;2023-01-19T04:29:42;97165.34;;;1.67;93.92
19108;BME280;9686;48.832;9.126;2023-01-19T04:32:07;97170.56;;;1.76;92.58
19108;BME280;9686;48.832;9.126;2023-01-19T04:34:33;97166.22;;;1.67;94.63
19108;BME280;9686;48.832;9.126;2023-01-19T04:36:58;97168.88;;;1.76;91.97
19108;BME280;9686;48.832;9.126;2023-01-19T04:39:23;97170.59;;;1.79;92.28
19108;BME280;9686;48.832;9.126;2023-01-19T04:41:49;97176.72;;;1.85;91.21
19108;BME280;9686;48.832;9.126;2023-01-19T04:44:16;97172.31;;;1.78;92.53
19108;BME280;9686;48.832;9.126;2023-01-19T04:46:41;97170.53;;;1.70;93.79
19108;BME280;9686;48.832;9.126;2023-01-19T04:49:08;97172.31;;;1.77;93.24
19108;BME280;9686;48.832;9.126;2023-01-19T04:51:33;97179.16;;;1.76;92.09
19108;BME280;9686;48.832;9.126;2023-01-19T04:53:58;97180.97;;;1.83;89.16
19108;BME280;9686;48.832;9.126;2023-01-19T04:56:24;97178.44;;;1.88;88.46
19108;BME280;9686;48.832;9.126;2023-01-19T04:58:49;97175.59;;;1.65;88.21
19108;BME280;9686;48.832;9.126;2023-01-19T05:01:14;97173.88;;;1.64;89.22
19108;BME280;9686;48.832;9.126;2023-01-19T05:03:40;97177.22;;;1.57;90.94
19108;BME280;9686;48.832;9.126;2023-01-19T05:06:05;97178.13;;;1.62;91.13
19108;BME280;9686;48.832;9.126;2023-01-19T05:08:31;97181.91;;;1.92;90.43
19108;BME280;9686;48.832;9.126;2023-01-19T05:10:57;97186.03;;;1.79;90.95
19108;BME280;9686;48.832;9.126;2023-01-19T05:13:22;97182.75;;;1.92;90.10
19108;BME280;9686;48.832;9.126;2023-01-19T05:15:47;97178.41;;;1.85;91.70
19108;BME280;9686;48.832;9.126;2023-01-19T05:18:13;97179.38;;;1.95;90.63
19108;BME280;9686;48.832;9.126;2023-01-19T05:20:38;97175.97;;;1.97;91.19
19108;BME280;9686;48.832;9.126;2023-01-19T05:23:04;97178.75;;;2.19;90.28
19108;BME280;9686;48.832;9.126;2023-01-19T05:25:29;97172.78;;;2.21;89.63
19108;BME280;9686;48.832;9.126;2023-01-19T05:27:54;97178.81;;;2.26;89.16
19108;BME280;9686;48.832;9.126;2023-01-19T05:30:20;97178.00;;;2.29;87.89
19108;BME280;9686;48.832;9.126;2023-01-19T05:32:45;97179.59;;;2.17;89.36
19108;BME280;9686;48.832;9.126;2023-01-19T05:35:11;97179.44;;;2.02;89.38
19108;BME280;9686;48.832;9.126;2023-01-19T05:37:38;97183.75;;;2.05;89.33
19108;BME280;9686;48.832;9.126;2023-01-19T05:40:04;97182.16;;;2.14;87.60
19108;BME280;9686;48.832;9.126;2023-01-19T05:42:29;97185.59;;;2.15;87.38
19108;BME280;9686;48.832;9.126;2023-01-19T05:44:55;97185.44;;;2.03;87.82
19108;BME280;9686;48.832;9.126;2023-01-19T05:47:20;97193.31;;;2.18;86.30
19108;BME280;9686;48.832;9.126;2023-01-19T05:49:45;97199.28;;;2.12;85.72
19108;BME280;9686;48.832;9.126;2023-01-19T05:52:11;97201.03;;;2.16;89.29
19108;BME280;9686;48.832;9.126;2023-01-19T05:54:36;97203.00;;;2.42;89.34
19108;BME280;9686;48.832;9.126;2023-01-19T05:57:04;97203.06;;;2.50;92.15
19108;BME280;9686;48.832;9.126;2023-01-19T05:59:29;97208.25;;;2.57;90.19
19108;BME280;9686;48.832;9.126;2023-01-19T06:01:55;97210.81;;;2.56;89.42
19108;BME280;9686;48.832;9.126;2023-01-19T06:04:21;97211.69;;;2.56;90.24
19108;BME280;9686;48.832;9.126;2023-01-19T06:06:47;97213.47;;;2.62;89.93
19108;BME280;9686;48.832;9.126;2023-01-19T06:09:12;97213.56;;;2.77;87.05
19108;BME280;9686;48.832;9.126;2023-01-19T06:11:38;97215.31;;;2.81;87.46
19108;BME280;9686;48.832;9.126;2023-01-19T06:14:03;97210.22;;;2.86;87.04
19108;BME280;9686;48.832;9.126;2023-01-19T06:16:28;97215.34;;;2.86;88.99
19108;BME280;9686;48.832;9.126;2023-01-19T06:18:54;97218.84;;;2.91;88.01
19108;BME280;9686;48.832;9.126;2023-01-19T06:21:20;97223.22;;;3.02;88.23
19108;BME280;9686;48.832;9.126;2023-01-19T06:23:45;97228.50;;;3.18;86.06
19108;BME280;9686;48.832;9.126;2023-01-19T06:26:10;97224.94;;;3.02;83.70
19108;BME280;9686;48.832;9.126;2023-01-19T06:28:36;97225.06;;;3.19;84.12
19108;BME280;9686;48.832;9.126;2023-01-19T06:31:01;97231.00;;;3.10;84.56
19108;BME280;9686;48.832;9.126;2023-01-19T06:33:26;97225.78;;;3.01;84.01
19108;BME280;9686;48.832;9.126;2023-01-19T06:35:53;97224.09;;;3.04;82.14
19108;BME280;9686;48.832;9.126;2023-01-19T06:38:19;97232.72;;;3.11;83.16
19108;BME280;9686;48.832;9.126;2023-01-19T06:40:50;97241.34;;;3.16;80.87
19108;BME280;9686;48.832;9.126;2023-01-19T06:43:15;97247.38;;;3.20;81.10
19108;BME280;9686;48.832;9.126;2023-01-19T06:45:41;97244.81;;;3.20;82.50
19108;BME280;9686;48.832;9.126;2023-01-19T06:48:07;97251.66;;;3.15;82.71
19108;BME280;9686;48.832;9.126;2023-01-19T06:50:32;97239.69;;;3.24;82.42
19108;BME280;9686;48.832;9.126;2023-01-19T06:52:57;97249.19;;;3.34;80.01
19108;BME280;9686;48.832;9.126;2023-01-19T06:55:23;97244.97;;;3.41;77.98
19108;BME280;9686;48.832;9.126;2023-01-19T06:57:55;97240.59;;;3.32;81.23
19108;BME280;9686;48.832;9.126;2023-01-19T07:00:21;97241.44;;;3.28;83.76
19108;BME280;9686;48.832;9.126;2023-01-19T07:02:46;97244.81;;;3.23;84.57
19108;BME280;9686;48.832;9.126;2023-01-19T07:05:11;97252.59;;;3.32;80.09
19108;BME280;9686;48.832;9.126;2023-01-19T07:07:39;97250.88;;;3.28;78.44
19108;BME280;9686;48.832;9.126;2023-01-19T07:10:08;97254.25;;;3.19;79.46
19108;BME280;9686;48.832;9.126;2023-01-19T07:12:34;97247.53;;;3.41;79.57
19108;BME280;9686;48.832;9.126;2023-01-19T07:14:59;97241.44;;;3.28;77.80
19108;BME280;9686;48.832;9.126;2023-01-19T07:17:25;97252.50;;;3.14;79.99
19108;BME280;9686;48.832;9.126;2023-01-19T07:19:50;97250.72;;;3.08;79.73
19108;BME280;9686;48.832;9.126;2023-01-19T07:22:15;97246.56;;;3.28;78.96
19108;BME280;9686;48.832;9.126;2023-01-19T07:24:41;97256.84;;;3.25;80.93
19108;BME280;9686;48.832;9.126;2023-01-19T07:27:06;97258.66;;;3.37;79.00
19108;BME280;9686;48.832;9.126;2023-01-19T07:29:32;97255.22;;;3.36;80.40
19108;BME280;9686;48.832;9.126;2023-01-19T07:31:57;97254.34;;;3.37;78.51
19108;BME280;9686;48.832;9.126;2023-01-19T07:34:22;97248.31;;;3.34;78.00
19108;BME280;9686;48.832;9.126;2023-01-19T07:36:48;97246.63;;;3.37;78.74
19108;BME280;9686;48.832;9.126;2023-01-19T07:39:13;97251.81;;;3.39;78.42
19108;BME280;9686;48.832;9.126;2023-01-19T07:41:39;97252.69;;;3.41;79.00
19108;BME280;9686;48.832;9.126;2023-01-19T07:44:04;97249.19;;;3.37;77.96
19108;BME280;9686;48.832;9.126;2023-01-19T07:46:29;97249.25;;;3.42;77.14
19108;BME280;9686;48.832;9.126;2023-01-19T07:48:55;97249.19;;;3.34;81.61
19108;BME280;9686;48.832;9.126;2023-01-19T07:51:20;97255.19;;;3.35;78.78
19108;BME280;9686;48.832;9.126;2023-01-19T07:53:48;97268.16;;;3.43;77.13
19108;BME280;9686;48.832;9.126;2023-01-19T07:56:14;97260.34;;;3.36;77.71
19108;BME280;9686;48.832;9.126;2023-01-19T07:58:39;97261.22;;;3.35;78.43
19108;BME280;9686;48.832;9.126;2023-01-19T08:01:09;97264.72;;;3.40;79.26
19108;BME280;9686;48.832;9.126;2023-01-19T08:03:35;97269.03;;;3.48;78.10
19108;BME280;9686;48.832;9.126;2023-01-19T08:06:01;97269.09;;;3.60;75.81
19108;BME280;9686;48.832;9.126;2023-01-19T08:08:28;97270.06;;;3.72;76.25
19108;BME280;9686;48.832;9.126;2023-01-19T08:10:54;97275.19;;;3.71;77.45
19108;BME280;9686;48.832;9.126;2023-01-19T08:13:19;97280.38;;;3.74;76.72
19108;BME280;9686;48.832;9.126;2023-01-19T08:15:48;97275.22;;;3.80;77.95
19108;BME280;9686;48.832;9.126;2023-01-19T08:18:13;97285.56;;;3.85;77.20
19108;BME280;9686;48.832;9.126;2023-01-19T08:20:39;97286.50;;;3.97;76.29
19108;BME280;9686;48.832;9.126;2023-01-19T08:23:05;97295.94;;;3.95;76.76
19108;BME280;9686;48.832;9.126;2023-01-19T08:25:36;97287.38;;;4.04;74.68
19108;BME280;9686;48.832;9.126;2023-01-19T08:28:03;97288.34;;;4.30;73.38
19108;BME280;9686;48.832;9.126;2023-01-19T08:30:28;97300.31;;;4.15;71.81
19108;BME280;9686;48.832;9.126;2023-01-19T08:32:54;97292.63;;;4.18;72.03
19108;BME280;9686;48.832;9.126;2023-01-19T08:35:28;97292.66;;;4.39;72.75
19108;BME280;9686;48.832;9.126;2023-01-19T08:37:53;97299.56;;;4.42;71.04
19108;BME280;9686;48.832;9.126;2023-01-19T08:40:19;97300.47;;;4.48;72.12
19108;BME280;9686;48.832;9.126;2023-01-19T08:42:45;97297.03;;;4.46;70.40
19108;BME280;9686;48.832;9.126;2023-01-19T08:45:10;97302.19;;;4.55;71.77
19108;BME280;9686;48.832;9.126;2023-01-19T08:47:35;97300.41;;;4.39;71.24
19108;BME280;9686;48.832;9.126;2023-01-19T08:50:01;97299.59;;;4.48;70.95
19108;BME280;9686;48.832;9.126;2023-01-19T08:52:26;97309.09;;;4.67;70.95
19108;BME280;9686;48.832;9.126;2023-01-19T08:54:53;97302.19;;;4.61;70.89
19108;BME280;9686;48.832;9.126;2023-01-19T08:57:18;97307.41;;;4.78;69.91
19108;BME280;9686;48.832;9.126;2023-01-19T08:59:44;97310.84;;;4.76;69.68
19108;BME280;9686;48.832;9.126;2023-01-19T09:02:11;97304.78;;;4.57;68.59
19108;BME280;9686;48.832;9.126;2023-01-19T09:04:37;97303.94;;;4.64;70.35
19108;BME280;9686;48.832;9.126;2023-01-19T09:07:02;97317.75;;;4.87;69.77
19108;BME280;9686;48.832;9.126;2023-01-19T09:09:27;97324.63;;;4.87;68.92
19108;BME280;9686;48.832;9.126;2023-01-19T09:11:53;97322.91;;;4.84;69.66
19108;BME280;9686;48.832;9.126;2023-01-19T09:14:18;97324.63;;;4.85;70.13
19108;BME280;9686;48.832;9.126;2023-01-19T09:16:43;97325.56;;;5.24;67.64
19108;BME280;9686;48.832;9.126;2023-01-19T09:19:09;97321.22;;;5.18;66.26
19108;BME280;9686;48.832;9.126;2023-01-19T09:21:34;97323.81;;;5.15;67.90
19108;BME280;9686;48.832;9.126;2023-01-19T09:23:59;97323.84;;;5.31;68.41
19108;BME280;9686;48.832;9.126;2023-01-19T09:26:25;97321.25;;;5.35;66.49
19108;BME280;9686;48.832;9.126;2023-01-19T09:28:51;97326.44;;;5.52;66.34
19108;BME280;9686;48.832;9.126;2023-01-19T09:31:16;97323.81;;;5.43;66.51
19108;BME280;9686;48.832;9.126;2023-01-19T09:33:41;97318.66;;;5.46;66.19
19108;BME280;9686;48.832;9.126;2023-01-19T09:36:07;97318.66;;;5.46;65.83
19108;BME280;9686;48.832;9.126;2023-01-19T09:38:32;97316.06;;;5.60;65.90
19108;BME280;9686;48.832;9.126;2023-01-19T09:40:58;97320.34;;;5.80;65.69
19108;BME280;9686;48.832;9.126;2023-01-19T09:45:57;97322.09;;;5.80;66.39
19108;BME280;9686;48.832;9.126;2023-01-19T09:48:52;97322.09;;;5.75;65.72
19108;BME280;9686;48.832;9.126;2023-01-19T09:51:32;97324.69;;;5.43;66.65
19108;BME280;9686;48.832;9.126;2023-01-19T09:54:11;97323.81;;;5.82;65.15
19108;BME280;9686;48.832;9.126;2023-01-19T09:56:39;97318.69;;;5.50;66.15
19108;BME280;9686;48.832;9.126;2023-01-19T10:05:01;97306.53;;;5.87;65.58
19108;BME280;9686;48.832;9.126;2023-01-19T10:10:28;97303.91;;;6.26;64.80
19108;BME280;9686;48.832;9.126;2023-01-19T10:13:46;97309.84;;;6.44;65.06
19108;BME280;9686;48.832;9.126;2023-01-19T10:19:16;97306.28;;;6.64;64.21
19108;BME280;9686;48.832;9.126;2023-01-19T10:21:45;97303.75;;;6.59;61.87
19108;BME280;9686;48.832;9.126;2023-01-19T10:26:43;97293.22;;;6.85;60.06
19108;BME280;9686;48.832;9.126;2023-01-19T10:29:29;97300.91;;;6.97;60.71
19108;BME280;9686;48.832;9.126;2023-01-19T10:34:44;97306.84;;;7.15;60.23
19108;BME280;9686;48.832;9.126;2023-01-19T10:40:14;97305.13;;;7.15;59.39
19108;BME280;9686;48.832;9.126;2023-01-19T10:42:44;97299.06;;;7.16;59.95
19108;BME280;9686;48.832;9.126;2023-01-19T10:45:16;97293.06;;;7.11;59.62
19108;BME280;9686;48.832;9.126;2023-01-19T10:47:43;97298.34;;;6.94;60.12
19108;BME280;9686;48.832;9.126;2023-01-19T10:50:28;97303.72;;;6.61;59.69
19108;BME280;9686;48.832;9.126;2023-01-19T10:53:02;97301.03;;;6.80;59.61
19108;BME280;9686;48.832;9.126;2023-01-19T10:57:57;97298.44;;;6.76;60.80
19108;BME280;9686;48.832;9.126;2023-01-19T11:00:40;97303.69;;;6.67;60.38
19108;BME280;9686;48.832;9.126;2023-01-19T11:03:44;97302.66;;;6.95;60.51
19108;BME280;9686;48.832;9.126;2023-01-19T11:08:37;97299.81;;;7.27;60.36
19108;BME280;9686;48.832;9.126;2023-01-19T11:11:03;97303.19;;;7.41;59.44
19108;BME280;9686;48.832;9.126;2023-01-19T11:13:30;97294.50;;;7.46;59.44
19108;BME280;9686;48.832;9.126;2023-01-19T11:15:58;97301.41;;;7.47;57.44
19108;BME280;9686;48.832;9.126;2023-01-19T11:18:33;97295.63;;;7.14;58.97
19108;BME280;9686;48.832;9.126;2023-01-19T11:21:01;97300.16;;;6.82;60.57
19108;BME280;9686;48.832;9.126;2023-01-19T11:23:31;97295.84;;;6.84;61.68
19108;BME280;9686;48.832;9.126;2023-01-19T11:25:59;97299.22;;;6.93;62.40
19108;BME280;9686;48.832;9.126;2023-01-19T11:28:41;97289.44;;;7.32;61.55
19108;BME280;9686;48.832;9.126;2023-01-19T11:33:40;97280.19;;;6.96;59.39
19108;BME280;9686;48.832;9.126;2023-01-19T11:36:23;97281.81;;;7.14;59.64
19108;BME280;9686;48.832;9.126;2023-01-19T11:38:57;97283.81;;;7.81;56.99
19108;BME280;9686;48.832;9.126;2023-01-19T11:41:34;97282.59;;;8.14;58.21
19108;BME280;9686;48.832;9.126;2023-01-19T11:44:21;97281.16;;;8.63;55.23
19108;BME280;9686;48.832;9.126;2023-01-19T11:46:52;97283.25;;;8.29;54.28
19108;BME280;9686;48.832;9.126;2023-01-19T11:49:26;97284.13;;;8.28;55.85
19108;BME280;9686;48.832;9.126;2023-01-19T11:52:13;97285.28;;;8.03;55.70
19108;BME280;9686;48.832;9.126;2023-01-19T11:54:56;97273.34;;;7.90;55.61
19108;BME280;9686;48.832;9.126;2023-01-19T11:57:22;97283.81;;;7.81;55.82
19108;BME280;9686;48.832;9.126;2023-01-19T11:59:48;97273.69;;;7.56;57.18
19108;BME280;9686;48.832;9.126;2023-01-19T12:02:25;97267.88;;;7.30;58.06
19108;BME280;9686;48.832;9.126;2023-01-19T12:04:55;97275.63;;;7.31;57.27
19108;BME280;9686;48.832;9.126;2023-01-19T12:07:27;97274.66;;;7.41;57.48
19108;BME280;9686;48.832;9.126;2023-01-19T12:10:22;97277.34;;;7.28;56.75
19108;BME280;9686;48.832;9.126;2023-01-19T12:12:48;97275.53;;;7.40;57.82
19108;BME280;9686;48.832;9.126;2023-01-19T12:15:42;97268.91;;;7.07;59.00
19108;BME280;9686;48.832;9.126;2023-01-19T12:18:18;97278.38;;;7.10;59.84
19108;BME280;9686;48.832;9.126;2023-01-19T12:20:48;97288.63;;;7.25;59.01
19108;BME280;9686;48.832;9.126;2023-01-19T12:28:45;97280.72;;;7.42;60.21
19108;BME280;9686;48.832;9.126;2023-01-19T12:31:19;97282.25;;;7.63;58.81
19108;BME280;9686;48.832;9.126;2023-01-19T12:33:46;97284.81;;;7.66;58.85
19108;BME280;9686;48.832;9.126;2023-01-19T12:39:19;97286.38;;;7.84;58.43
19108;BME280;9686;48.832;9.126;2023-01-19T12:41:46;97288.09;;;7.86;58.42
19108;BME280;9686;48.832;9.126;2023-01-19T12:46:54;97296.78;;;7.79;60.67
19108;BME280;9686;48.832;9.126;2023-01-19T12:52:17;97307.50;;;7.42;62.39
19108;BME280;9686;48.832;9.126;2023-01-19T12:55:06;97308.31;;;7.46;62.83
19108;BME280;9686;48.832;9.126;2023-01-19T13:00:22;97311.34;;;6.90;70.35
19108;BME280;9686;48.832;9.126;2023-01-19T13:02:56;97313.13;;;6.75;75.19
19108;BME280;9686;48.832;9.126;2023-01-19T13:05:23;97304.41;;;6.90;74.43
19108;BME280;9686;48.832;9.126;2023-01-19T13:13:38;97307.63;;;7.24;73.84
19108;BME280;9686;48.832;9.126;2023-01-19T13:24:21;97306.84;;;7.16;74.50
19108;BME280;9686;48.832;9.126;2023-01-19T13:29:15;97313.59;;;7.37;73.27
19108;BME280;9686;48.832;9.126;2023-01-19T13:31:43;97310.22;;;7.29;73.04
19108;BME280;9686;48.832;9.126;2023-01-19T13:34:20;97313.75;;;7.17;72.01
19108;BME280;9686;48.832;9.126;2023-01-19T13:36:50;97308.47;;;7.29;72.29
19108;BME280;9686;48.832;9.126;2023-01-19T13:39:19;97307.63;;;7.26;71.72
19108;BME280;9686;48.832;9.126;2023-01-19T13:41:51;97311.09;;;7.22;71.97
19108;BME280;9686;48.832;9.126;2023-01-19T13:44:27;97311.06;;;7.31;73.35
19108;BME280;9686;48.832;9.126;2023-01-19T13:46:54;97314.44;;;7.40;71.89
19108;BME280;9686;48.832;9.126;2023-01-19T13:49:36;97323.81;;;7.55;70.34
19108;BME280;9686;48.832;9.126;2023-01-19T13:54:35;97322.88;;;7.64;70.61
19108;BME280;9686;48.832;9.126;2023-01-19T13:57:01;97325.41;;;7.68;70.61
19108;BME280;9686;48.832;9.126;2023-01-19T13:59:26;97323.72;;;7.67;70.81
19108;BME280;9686;48.832;9.126;2023-01-19T14:01:51;97326.06;;;7.93;68.01
19108;BME280;9686;48.832;9.126;2023-01-19T14:04:32;97323.63;;;7.73;68.11
19108;BME280;9686;48.832;9.126;2023-01-19T14:07:03;97325.31;;;7.82;67.07
19108;BME280;9686;48.832;9.126;2023-01-19T14:09:29;97325.16;;;7.97;67.09
19108;BME280;9686;48.832;9.126;2023-01-19T14:12:23;97331.31;;;7.87;66.36
19108;BME280;9686;48.832;9.126;2023-01-19T14:14:49;97326.97;;;7.88;67.62
19108;BME280;9686;48.832;9.126;2023-01-19T14:17:32;97327.91;;;7.78;67.27
19108;BME280;9686;48.832;9.126;2023-01-19T14:19:58;97329.63;;;7.80;67.37
19108;BME280;9686;48.832;9.126;2023-01-19T14:22:43;97326.03;;;7.95;66.81
19108;BME280;9686;48.832;9.126;2023-01-19T14:25:31;97326.13;;;7.87;68.00
19108;BME280;9686;48.832;9.126;2023-01-19T14:28:32;97328.63;;;7.95;67.83
19108;BME280;9686;48.832;9.126;2023-01-19T14:31:02;97319.13;;;7.95;66.83
19108;BME280;9686;48.832;9.126;2023-01-19T14:33:33;97327.75;;;7.97;66.64
19108;BME280;9686;48.832;9.126;2023-01-19T14:36:28;97322.66;;;7.87;64.54
19108;BME280;9686;48.832;9.126;2023-01-19T14:38:58;97325.28;;;7.85;67.03
19108;BME280;9686;48.832;9.126;2023-01-19T14:41:47;97329.63;;;7.80;67.09
19108;BME280;9686;48.832;9.126;2023-01-19T14:44:31;97322.72;;;7.81;66.67
19108;BME280;9686;48.832;9.126;2023-01-19T14:46:58;97320.09;;;7.84;68.54
19108;BME280;9686;48.832;9.126;2023-01-19T14:49:45;97314.81;;;7.93;67.40
19108;BME280;9686;48.832;9.126;2023-01-19T14:52:20;97317.50;;;7.84;67.63